Time;durP1;ratioP1;P1;durP2;ratioP2;P2;SDS_P1;SDS_P2;PMS_P1;PMS_P2;Temp;Humidity;BMP_temperature;BMP_pressure;BME280_temperature;BME280_humidity;BME280_pressure;Samples;Min_cycle;Max_cycle;Signal;HPM_P1;HPM_P2
2023/12/27 00:04:36;;;;;;;8.88;2.72;;;;;;;2.02;100.00;102034.09;10439448;28;20047;-78
2023/12/27 00:09:37;;;;;;;11.52;1.90;;;;;;;1.96;100.00;102037.47;10440334;28;20037;-78
2023/12/27 00:14:37;;;;;;;13.15;2.65;;;;;;;1.91;100.00;102040.69;10439800;28;20093;-77
2023/12/27 00:19:38;;;;;;;8.27;2.10;;;;;;;1.89;100.00;102044.63;10456302;28;20033;-77
2023/12/27 00:24:38;;;;;;;17.40;2.90;;;;;;;1.70;100.00;102048.50;10447860;28;20037;-73
2023/12/27 00:29:39;;;;;;;9.00;2.40;;;;;;;1.69;100.00;102052.22;10448675;28;20044;-76
2023/12/27 00:34:39;;;;;;;14.67;2.87;;;;;;;1.56;100.00;102055.41;10439186;28;20395;-77
2023/12/27 00:39:40;;;;;;;7.20;2.33;;;;;;;1.48;100.00;102056.22;10456077;28;20061;-77
2023/12/27 00:44:40;;;;;;;11.67;3.53;;;;;;;1.27;100.00;102043.13;10422825;28;20484;-77
2023/12/27 00:49:41;;;;;;;10.67;2.70;;;;;;;1.26;100.00;102056.84;10455526;28;20037;-77
2023/12/27 00:54:42;;;;;;;7.70;2.60;;;;;;;1.19;100.00;102072.91;10456550;28;20041;-77
2023/12/27 00:59:42;;;;;;;13.47;3.40;;;;;;;0.98;100.00;102038.94;10459377;28;20044;-78
2023/12/27 01:04:43;;;;;;;9.97;2.67;;;;;;;0.90;100.00;102041.59;10446633;28;20072;-77
2023/12/27 01:09:43;;;;;;;10.90;2.50;;;;;;;1.03;100.00;102068.25;10463914;28;20033;-78
2023/12/27 01:14:44;;;;;;;12.30;3.83;;;;;;;0.94;100.00;102064.66;10442696;28;20037;-77
2023/12/27 01:19:44;;;;;;;12.85;2.40;;;;;;;0.98;100.00;102079.59;10461719;28;20041;-77
2023/12/27 01:24:45;;;;;;;14.27;3.17;;;;;;;0.79;100.00;102053.56;10464752;28;20101;-77
2023/12/27 01:29:45;;;;;;;14.90;3.08;;;;;;;0.86;100.00;102082.75;10461452;28;20041;-76
2023/12/27 01:34:46;;;;;;;14.30;3.35;;;;;;;0.79;100.00;102090.69;10461507;28;20119;-77
2023/12/27 01:39:46;;;;;;;10.67;2.50;;;;;;;0.65;100.00;102075.00;10463753;28;20075;-77
2023/12/27 01:44:47;;;;;;;14.95;2.75;;;;;;;0.57;100.00;102063.09;10480821;28;20108;-77
2023/12/27 01:49:47;;;;;;;9.83;3.00;;;;;;;0.56;100.00;102072.25;10461015;28;20033;-77
2023/12/27 01:54:48;;;;;;;11.10;3.33;;;;;;;0.66;100.00;102076.69;10428162;28;20524;-76
2023/12/27 01:59:48;;;;;;;12.03;3.17;;;;;;;0.55;100.00;102075.94;10460628;28;20072;-77
2023/12/27 02:04:49;;;;;;;12.57;3.33;;;;;;;0.50;100.00;102075.59;10461173;28;20033;-77
2023/12/27 02:09:50;;;;;;;12.32;2.63;;;;;;;0.43;100.00;102070.94;10462399;28;20033;-77
2023/12/27 02:14:51;;;;;;;10.60;2.87;;;;;;;0.48;100.00;102074.06;10460102;28;20040;-77
2023/12/27 02:19:52;;;;;;;15.53;3.67;;;;;;;0.45;100.00;102068.94;10459247;28;20063;-74
2023/12/27 02:24:56;;;;;;;8.93;3.63;;;;;;;0.37;100.00;102069.72;10417118;28;20045;-78
2023/12/27 02:29:56;;;;;;;9.43;2.17;;;;;;;0.37;100.00;102067.88;10426848;28;20037;-79
2023/12/27 02:34:57;;;;;;;11.20;2.93;;;;;;;0.31;100.00;102064.94;10461203;28;20094;-79
2023/12/27 02:39:59;;;;;;;11.32;3.13;;;;;;;0.23;100.00;102049.50;10440732;28;20041;-80
2023/12/27 02:44:59;;;;;;;9.87;3.33;;;;;;;0.24;100.00;102055.75;10443061;28;20045;-77
2023/12/27 02:50:00;;;;;;;6.57;2.10;;;;;;;0.18;100.00;102047.22;10461522;28;20045;-77
2023/12/27 02:55:00;;;;;;;9.57;2.73;;;;;;;0.11;100.00;102048.88;10459343;28;20045;-77
2023/12/27 03:00:01;;;;;;;9.97;2.80;;;;;;;0.05;100.00;102041.38;10459801;28;20041;-74
2023/12/27 03:05:02;;;;;;;10.07;2.40;;;;;;;0.05;100.00;102046.78;10455113;28;20094;-77
2023/12/27 03:10:03;;;;;;;12.03;2.63;;;;;;;0.03;100.00;102027.16;10474110;28;20076;-78
2023/12/27 03:15:04;;;;;;;9.47;3.50;;;;;;;-0.25;100.00;101994.78;10458789;28;20040;-77
2023/12/27 03:20:05;;;;;;;11.13;2.75;;;;;;;-0.10;100.00;102007.75;10440873;28;20041;-77
2023/12/27 03:25:06;;;;;;;11.27;2.90;;;;;;;-0.08;100.00;101993.06;10439214;28;20033;-79
2023/12/27 03:30:07;;;;;;;5.77;2.17;;;;;;;0.00;100.00;101994.97;10440665;28;20045;-77
2023/12/27 03:35:08;;;;;;;10.80;3.00;;;;;;;-0.07;100.00;101972.25;10456443;28;20052;-77
2023/12/27 03:40:08;;;;;;;11.80;2.63;;;;;;;-0.05;100.00;101978.34;10438087;28;20049;-78
2023/12/27 03:45:09;;;;;;;12.93;2.87;;;;;;;0.08;100.00;102008.56;10444466;28;20040;-79
2023/12/27 03:50:10;;;;;;;7.90;2.60;;;;;;;-0.45;100.00;101910.22;10440834;28;20049;-78
2023/12/27 03:55:11;;;;;;;18.43;3.90;;;;;;;-0.64;100.00;101853.56;10458957;28;20041;-79
2023/12/27 04:00:12;;;;;;;14.20;3.50;;;;;;;0.28;100.00;101992.97;10458677;28;20059;-78
2023/12/27 04:05:15;;;;;;;9.37;3.30;;;;;;;0.24;100.00;101993.44;10457484;28;20052;-79
2023/12/27 04:10:16;;;;;;;13.70;3.70;;;;;;;0.26;100.00;101994.16;10458487;28;20041;-79
2023/12/27 04:15:16;;;;;;;14.63;3.10;;;;;;;0.23;100.00;101999.84;10455736;28;20049;-78
2023/12/27 04:20:17;;;;;;;10.27;3.67;;;;;;;0.22;100.00;101993.59;10456169;28;20040;-79
2023/12/27 04:25:17;;;;;;;9.03;3.70;;;;;;;0.19;100.00;102004.75;10439072;28;20033;-77
2023/12/27 04:30:18;;;;;;;10.43;3.93;;;;;;;0.20;100.00;101987.50;10455237;28;20045;-78
2023/12/27 04:35:19;;;;;;;12.47;3.60;;;;;;;0.28;100.00;101997.53;10455158;28;20071;-75
2023/12/27 04:40:19;;;;;;;11.80;3.67;;;;;;;0.30;100.00;101998.22;10458175;28;20598;-78
2023/12/27 04:45:20;;;;;;;18.10;3.90;;;;;;;0.05;100.00;101949.31;10439160;28;20045;-77
2023/12/27 04:50:20;;;;;;;10.97;4.93;;;;;;;0.25;100.00;101970.75;10438317;28;20222;-77
2023/12/27 04:55:21;;;;;;;16.90;5.27;;;;;;;0.39;100.00;101987.31;10454118;28;20463;-79
2023/12/27 05:00:23;;;;;;;14.93;4.80;;;;;;;0.39;100.00;101976.47;10470773;28;20037;-79
2023/12/27 05:05:23;;;;;;;14.53;5.50;;;;;;;0.31;100.00;101948.44;10454469;28;20562;-77
2023/12/27 05:10:24;;;;;;;18.10;6.73;;;;;;;0.28;100.00;101940.66;10438781;28;20063;-79
2023/12/27 05:15:24;;;;;;;17.20;5.97;;;;;;;0.33;100.00;101943.72;10454987;28;20124;-77
2023/12/27 05:20:25;;;;;;;19.23;5.90;;;;;;;0.51;100.00;101971.59;10438588;28;20087;-78
2023/12/27 05:25:25;;;;;;;14.60;6.20;;;;;;;0.44;100.00;101929.91;10455524;28;20250;-77
2023/12/27 05:30:25;;;;;;;17.70;7.77;;;;;;;0.63;100.00;101958.63;10438555;28;20041;-77
2023/12/27 05:35:26;;;;;;;18.63;6.80;;;;;;;0.65;100.00;101944.91;10454585;28;20048;-77
2023/12/27 05:40:27;;;;;;;20.17;8.53;;;;;;;0.67;100.00;101959.16;10453588;28;20407;-78
2023/12/27 05:45:27;;;;;;;16.58;7.63;;;;;;;0.75;100.00;101968.16;10441061;28;20045;-78
2023/12/27 05:50:28;;;;;;;23.00;9.60;;;;;;;0.63;100.00;101936.09;10454456;28;20033;-77
2023/12/27 05:55:29;;;;;;;21.40;8.88;;;;;;;0.76;100.00;101952.75;10461374;28;20045;-74
2023/12/27 06:00:29;;;;;;;30.13;10.70;;;;;;;0.86;100.00;101952.63;10461099;28;20531;-78
2023/12/27 06:05:30;;;;;;;20.23;9.23;;;;;;;0.93;100.00;101940.97;10445020;28;20045;-77
2023/12/27 06:10:30;;;;;;;20.53;9.73;;;;;;;1.00;100.00;101923.00;10462406;28;20037;-78
2023/12/27 06:15:30;;;;;;;20.93;9.93;;;;;;;0.90;100.00;101905.19;10459978;28;20272;-77
2023/12/27 06:20:31;;;;;;;22.50;8.97;;;;;;;0.93;100.00;101932.84;10477027;28;20087;-78
2023/12/27 06:25:32;;;;;;;19.73;9.13;;;;;;;1.06;100.00;101926.94;10461205;28;20451;-79
2023/12/27 06:30:32;;;;;;;23.80;9.47;;;;;;;1.14;100.00;101924.22;10476264;28;20049;-78
2023/12/27 06:35:32;;;;;;;22.07;10.03;;;;;;;1.15;100.00;101919.66;10440251;28;20037;-78
2023/12/27 06:40:33;;;;;;;18.37;10.10;;;;;;;1.19;100.00;101910.16;10442887;28;20037;-78
2023/12/27 06:45:34;;;;;;;22.27;9.60;;;;;;;1.28;100.00;101909.19;10460388;28;20029;-78
2023/12/27 06:50:34;;;;;;;21.77;10.27;;;;;;;1.24;100.00;101905.09;10459542;28;20096;-78
2023/12/27 06:55:35;;;;;;;19.27;9.50;;;;;;;1.21;100.00;101910.84;10460840;28;20059;-79
2023/12/27 07:00:38;;;;;;;18.70;9.93;;;;;;;1.24;100.00;101902.38;10440994;28;20033;-79
2023/12/27 07:05:39;;;;;;;24.10;9.90;;;;;;;1.27;100.00;101907.47;10427068;28;20033;-78
2023/12/27 07:10:39;;;;;;;17.47;8.47;;;;;;;1.22;100.00;101885.44;10442695;28;20033;-79
2023/12/27 07:15:40;;;;;;;20.48;9.85;;;;;;;1.34;100.00;101903.03;10475021;28;20071;-77
2023/12/27 07:20:40;;;;;;;16.67;9.40;;;;;;;1.33;100.00;101895.94;10459107;28;20532;-78
2023/12/27 07:25:41;;;;;;;19.47;9.53;;;;;;;1.30;100.00;101874.59;10441133;28;20086;-77
2023/12/27 07:30:42;;;;;;;21.88;10.45;;;;;;;1.44;100.00;101889.31;10457339;28;20116;-80
2023/12/27 07:35:45;;;;;;;15.52;8.75;;;;;;;1.53;100.00;101890.16;10442984;28;20065;-77
2023/12/27 07:40:45;;;;;;;25.70;9.67;;;;;;;1.54;100.00;101881.88;10441965;28;20048;-77
2023/12/27 07:45:46;;;;;;;20.42;9.45;;;;;;;1.55;100.00;101877.28;10424870;28;20052;-78
2023/12/27 07:50:47;;;;;;;29.90;10.53;;;;;;;1.61;100.00;101860.31;10473856;28;20044;-78
2023/12/27 07:55:47;;;;;;;21.95;9.35;;;;;;;1.66;100.00;101857.09;10439666;28;20068;-80
2023/12/27 08:00:48;;;;;;;25.40;11.17;;;;;;;1.68;100.00;101834.19;10437675;28;20519;-78
2023/12/27 08:05:48;;;;;;;18.20;9.83;;;;;;;1.77;100.00;101841.28;10431824;28;20147;-79
2023/12/27 08:10:49;;;;;;;19.67;9.87;;;;;;;1.87;100.00;101838.41;10456862;28;24616;-78
2023/12/27 08:15:52;;;;;;;24.53;11.50;;;;;;;1.80;100.00;101811.09;10456583;28;20097;-78
2023/12/27 08:20:53;;;;;;;27.20;11.40;;;;;;;2.00;100.00;101832.41;10438628;28;20037;-77
2023/12/27 08:25:53;;;;;;;24.43;10.37;;;;;;;1.96;100.00;101820.19;10455128;28;20101;-78
2023/12/27 08:30:54;;;;;;;24.50;11.05;;;;;;;2.10;100.00;101826.78;10457329;28;20124;-80
2023/12/27 08:35:54;;;;;;;20.67;9.80;;;;;;;2.04;100.00;101795.72;10470537;28;20037;-78
2023/12/27 08:40:56;;;;;;;22.92;8.80;;;;;;;2.17;100.00;101806.03;10455188;28;20037;-78
2023/12/27 08:45:56;;;;;;;21.85;9.70;;;;;;;2.21;100.00;101808.25;10439002;28;20048;-77
2023/12/27 08:50:58;;;;;;;20.13;9.55;;;;;;;2.36;100.00;101810.22;10422269;28;20141;-77
2023/12/27 08:55:59;;;;;;;19.48;8.32;;;;;;;2.43;100.00;101811.19;10454791;28;20102;-78
2023/12/27 09:01:01;;;;;;;22.52;8.75;;;;;;;2.45;100.00;101798.28;10455230;28;20128;-77
2023/12/27 09:06:02;;;;;;;22.08;7.97;;;;;;;2.57;100.00;101807.72;10454178;28;20041;-78
2023/12/27 09:11:04;;;;;;;21.08;7.45;;;;;;;2.57;100.00;101807.72;10432590;28;20041;-78
2023/12/27 09:16:04;;;;;;;15.88;6.38;;;;;;;2.71;100.00;101800.69;10472269;28;20045;-77
2023/12/27 09:21:06;;;;;;;16.00;6.53;;;;;;;2.76;100.00;101802.84;10461314;28;20069;-80
2023/12/27 09:26:12;;;;;;;17.50;6.32;;;;;;;2.91;100.00;101803.75;10430710;28;20466;-78
2023/12/27 09:31:13;;;;;;;15.50;5.03;;;;;;;2.93;100.00;101787.25;10463455;28;20044;-79
2023/12/27 09:36:20;;;;;;;18.40;5.85;;;;;;;3.02;100.00;101786.19;10429745;28;20057;-80
2023/12/27 09:41:20;;;;;;;12.98;5.60;;;;;;;3.06;100.00;101778.47;10455118;28;20055;-76
2023/12/27 09:46:21;;;;;;;17.08;4.90;;;;;;;3.07;100.00;101774.75;10464872;28;20056;-77
2023/12/27 09:51:25;;;;;;;16.25;4.90;;;;;;;3.24;100.00;101768.13;10446007;28;20037;-76
2023/12/27 09:56:25;;;;;;;18.77;5.22;;;;;;;3.28;100.00;101749.56;10463060;28;20037;-77
2023/12/27 10:01:26;;;;;;;11.70;4.10;;;;;;;3.38;100.00;101742.81;10461541;28;20067;-77
2023/12/27 10:06:45;;;;;;;11.40;4.55;;;;;;;3.41;100.00;101717.97;10443693;28;20036;-77
2023/12/27 10:11:45;;;;;;;10.48;3.75;;;;;;;3.36;100.00;101682.28;10427983;28;20041;-77
2023/12/27 10:16:46;;;;;;;11.90;4.45;;;;;;;3.59;100.00;101703.13;10427595;28;20055;-77
2023/12/27 10:21:46;;;;;;;13.23;5.20;;;;;;;3.63;100.00;101680.75;10443904;28;20037;-77
2023/12/27 10:26:47;;;;;;;17.83;5.28;;;;;;;3.77;100.00;101670.91;10461337;28;20036;-77
2023/12/27 10:31:47;;;;;;;15.85;4.68;;;;;;;3.84;100.00;101660.94;10460847;28;20065;-78
2023/12/27 10:36:51;;;;;;;22.13;5.43;;;;;;;3.53;100.00;101584.91;10460348;28;20045;-78
2023/12/27 10:41:52;;;;;;;16.38;5.50;;;;;;;3.98;100.00;101621.06;10458089;28;20120;-77
2023/12/27 10:46:53;;;;;;;12.60;6.60;;;;;;;3.96;100.00;101606.78;10426271;28;20097;-78
2023/12/27 10:51:55;;;;;;;21.00;6.47;;;;;;;3.99;100.00;101578.31;10442873;28;20036;-77
2023/12/27 10:56:56;;;;;;;28.67;6.78;;;;;;;4.22;100.00;101589.88;10461243;28;20299;-77
2023/12/27 11:01:56;;;;;;;11.23;5.63;;;;;;;4.30;100.00;101552.63;10444748;28;20037;-76
2023/12/27 11:06:57;;;;;;;13.98;5.60;;;;;;;4.31;100.00;101529.78;10442178;28;20033;-77
2023/12/27 11:11:57;;;;;;;18.25;7.65;;;;;;;4.39;100.00;101532.38;10424141;28;20051;-77
2023/12/27 11:16:57;;;;;;;15.05;7.75;;;;;;;4.41;100.00;101528.41;10441148;28;20409;-77
2023/12/27 11:21:58;;;;;;;15.55;7.50;;;;;;;4.50;100.00;101512.72;10460306;28;20045;-79
2023/12/27 11:26:59;;;;;;;21.90;7.13;;;;;;;4.70;100.00;101501.97;10427096;28;20072;-78
2023/12/27 11:32:00;;;;;;;16.73;8.10;;;;;;;4.73;100.00;101479.72;10449102;28;20041;-79
2023/12/27 11:37:00;;;;;;;16.13;7.38;;;;;;;4.73;100.00;101482.47;10457977;28;20049;-80
2023/12/27 11:42:02;;;;;;;17.60;7.10;;;;;;;4.63;100.00;101450.13;10436048;28;20037;-77
2023/12/27 11:47:05;;;;;;;24.75;6.97;;;;;;;4.76;100.00;101470.31;10456083;28;20057;-77
2023/12/27 11:52:06;;;;;;;18.60;7.35;;;;;;;4.65;100.00;101472.56;10456247;28;20163;-78
2023/12/27 11:57:06;;;;;;;19.05;7.28;;;;;;;4.29;100.00;101403.75;10436103;28;20065;-77
2023/12/27 12:02:07;;;;;;;20.45;8.35;;;;;;;4.50;100.00;101430.94;10455918;28;20052;-77
2023/12/27 12:07:18;;;;;;;17.88;8.57;;;;;;;4.67;100.00;101425.97;10466552;28;20060;-78
2023/12/27 12:12:23;;;;;;;24.73;10.40;;;;;;;3.88;100.00;101287.38;10456019;28;20090;-79
2023/12/27 12:17:23;;;;;;;21.08;9.40;;;;;;;4.62;100.00;101388.41;10438962;28;20072;-78
2023/12/27 12:22:24;;;;;;;18.10;9.00;;;;;;;4.70;100.00;101389.31;10431717;28;20240;-78
2023/12/27 12:27:24;;;;;;;27.88;9.52;;;;;;;4.53;100.00;101362.38;10440331;28;20080;-80
2023/12/27 12:32:27;;;;;;;27.70;10.40;;;;;;;4.56;100.00;101350.22;10436802;28;20048;-78
2023/12/27 12:37:28;;;;;;;24.15;10.10;;;;;;;4.49;100.00;101322.91;10454715;28;20048;-80
2023/12/27 12:42:29;;;;;;;19.90;10.27;;;;;;;4.44;100.00;101311.75;10413837;28;20036;-80
2023/12/27 12:47:29;;;;;;;26.27;10.38;;;;;;;4.50;100.00;101302.78;10457569;28;20048;-81
2023/12/27 12:52:30;;;;;;;28.08;12.88;;;;;;;4.40;100.00;101286.81;10440905;28;20404;-82
2023/12/27 12:57:30;;;;;;;28.48;11.85;;;;;;;4.45;100.00;101283.47;10481717;28;20496;-81
2023/12/27 13:02:31;;;;;;;24.85;12.45;;;;;;;4.31;100.00;101252.59;10463777;28;20120;-81
2023/12/27 13:07:32;;;;;;;32.55;11.70;;;;;;;4.45;100.00;101264.38;10437416;28;20037;-83
2023/12/27 13:12:33;;;;;;;26.02;12.68;;;;;;;4.45;100.00;101245.31;10452489;28;20037;-84
2023/12/27 13:17:34;;;;;;;34.88;13.55;;;;;;;4.52;100.00;101221.63;10426903;28;20041;-83
2023/12/27 13:22:34;;;;;;;27.17;11.52;;;;;;;4.51;100.00;101210.94;10458895;28;20093;-85
2023/12/27 13:27:35;;;;;;;33.38;14.00;;;;;;;4.41;100.00;101200.41;10424974;28;20041;-85
2023/12/27 13:32:35;;;;;;;30.30;13.95;;;;;;;4.47;100.00;101196.88;10444536;28;20485;-85
2023/12/27 13:37:36;;;;;;;31.55;13.68;;;;;;;4.38;100.00;101162.66;10442631;28;20509;-84
2023/12/27 13:42:36;;;;;;;26.33;13.75;;;;;;;4.54;100.00;101150.53;10458343;28;20080;-84
2023/12/27 13:47:37;;;;;;;32.35;13.48;;;;;;;4.51;100.00;101129.13;10426772;28;20040;-84
2023/12/27 13:52:37;;;;;;;29.50;13.07;;;;;;;4.58;100.00;101130.81;10444711;28;20048;-83
2023/12/27 13:57:38;;;;;;;30.65;15.80;;;;;;;4.69;100.00;101104.78;10443027;28;20068;-83
2023/12/27 14:02:38;;;;;;;40.28;17.48;;;;;;;4.79;100.00;101085.28;10419254;28;20061;-84
2023/12/27 14:07:39;;;;;;;33.53;17.92;;;;;;;4.81;100.00;101080.47;10422832;28;20589;-83
2023/12/27 14:12:42;;;;;;;35.22;17.85;;;;;;;4.84;100.00;101059.06;10441938;28;20067;-87
2023/12/27 14:17:45;;;;;;;32.20;17.25;;;;;;;5.01;100.00;101064.91;10459687;28;20501;-83
2023/12/27 14:22:46;;;;;;;38.10;17.27;;;;;;;4.97;100.00;101047.28;10460874;28;20037;-84
2023/12/27 14:27:46;;;;;;;33.00;16.35;;;;;;;5.10;100.00;101034.66;10438984;28;20045;-84
2023/12/27 14:32:47;;;;;;;36.00;17.70;;;;;;;5.17;100.00;101000.00;10400133;28;20052;-85
2023/12/27 14:37:48;;;;;;;34.78;18.98;;;;;;;5.11;100.00;100968.94;10457758;28;20091;-85
2023/12/27 14:42:48;;;;;;;39.50;18.58;;;;;;;5.15;100.00;100942.91;10426262;28;20048;-85
2023/12/27 14:47:49;;;;;;;36.90;19.40;;;;;;;5.28;100.00;101026.63;10442098;28;20029;-85
2023/12/27 14:52:49;;;;;;;43.28;21.50;;;;;;;5.30;100.00;101004.56;10426074;28;20090;-83
2023/12/27 14:57:50;;;;;;;41.63;19.50;;;;;;;5.32;100.00;100973.25;10438755;28;20048;-85
2023/12/27 15:02:51;;;;;;;38.17;20.00;;;;;;;5.20;100.00;100950.44;10423851;28;20061;-86
2023/12/27 15:07:51;;;;;;;34.63;18.90;;;;;;;5.35;100.00;100961.91;10422660;28;20041;-84
2023/12/27 15:12:52;;;;;;;39.38;18.02;;;;;;;5.25;100.00;100936.97;10455732;28;20048;-85
2023/12/27 15:17:52;;;;;;;70.32;30.48;;;;;;;5.36;100.00;100924.53;10457204;28;20037;-85
2023/12/27 15:22:55;;;;;;;45.45;20.75;;;;;;;5.40;100.00;100903.94;10407782;28;20079;-86
2023/12/27 15:28:03;;;;;;;39.60;19.88;;;;;;;5.35;100.00;100895.53;10454288;28;20044;-85
2023/12/27 15:33:04;;;;;;;34.72;18.92;;;;;;;5.42;100.00;100880.81;10440174;28;20499;-86
2023/12/27 15:38:05;;;;;;;43.05;21.70;;;;;;;5.60;100.00;100896.44;10430377;28;20041;-85
2023/12/27 15:43:05;;;;;;;44.47;19.05;;;;;;;5.67;100.00;100915.50;10436090;28;20040;-86
2023/12/27 15:48:06;;;;;;;46.95;20.88;;;;;;;5.64;100.00;100874.97;10437681;28;20085;-85
2023/12/27 15:53:07;;;;;;;42.17;20.80;;;;;;;5.80;100.00;100870.84;10439517;28;20033;-85
2023/12/27 15:58:08;;;;;;;39.05;18.52;;;;;;;5.86;100.00;100848.09;10421262;28;20563;-86
2023/12/27 16:03:08;;;;;;;39.03;19.30;;;;;;;5.92;100.00;100830.00;10405251;28;20076;-85
2023/12/27 16:08:09;;;;;;;34.60;18.58;;;;;;;5.72;100.00;100761.88;10439617;28;20048;-79
2023/12/27 16:13:12;;;;;;;43.42;19.83;;;;;;;6.03;100.00;100805.50;10417738;28;20108;-84
2023/12/27 16:18:12;;;;;;;40.55;19.50;;;;;;;6.05;100.00;100811.56;10436843;28;20048;-85
2023/12/27 16:23:13;;;;;;;39.25;18.42;;;;;;;6.05;100.00;100797.09;10439248;28;20041;-85
2023/12/27 16:28:13;;;;;;;31.40;17.40;;;;;;;6.06;100.00;100775.00;10430240;28;20730;-87
2023/12/27 16:33:14;;;;;;;34.40;17.92;;;;;;;6.26;100.00;100785.72;10450204;28;20044;-84
2023/12/27 16:38:14;;;;;;;36.03;16.48;;;;;;;6.28;100.00;100773.72;10421698;28;20045;-82
2023/12/27 16:43:28;;;;;;;34.35;16.55;;;;;;;6.24;100.00;100756.91;10437532;28;20037;-85
2023/12/27 16:48:28;;;;;;;34.58;16.60;;;;;;;6.03;100.00;100723.50;10453889;28;20083;-84
2023/12/27 16:53:29;;;;;;;26.30;14.20;;;;;;;6.20;100.00;100756.56;10466800;28;20083;-85
2023/12/27 16:58:29;;;;;;;33.78;14.25;;;;;;;6.18;100.00;100741.44;10419665;28;20071;-84
2023/12/27 17:03:30;;;;;;;30.27;13.75;;;;;;;6.18;100.00;100719.56;10432619;28;20064;-84
2023/12/27 17:08:30;;;;;;;28.15;13.23;;;;;;;6.11;100.00;100714.19;10444397;28;20036;-84
2023/12/27 17:13:31;;;;;;;29.75;14.07;;;;;;;6.19;100.00;100724.81;10420091;28;20041;-83
2023/12/27 17:18:31;;;;;;;28.27;13.52;;;;;;;6.16;100.00;100706.16;10439567;28;20045;-81
2023/12/27 17:23:32;;;;;;;25.20;12.60;;;;;;;6.07;100.00;100689.19;10429582;28;20064;-85
2023/12/27 17:28:32;;;;;;;24.98;12.80;;;;;;;6.05;100.00;100691.31;10412244;28;20071;-84
2023/12/27 17:33:33;;;;;;;23.15;12.45;;;;;;;5.91;100.00;100662.44;10415273;28;20036;-85
2023/12/27 17:38:34;;;;;;;24.88;12.30;;;;;;;6.04;100.00;100658.78;10420089;28;20094;-84
2023/12/27 17:43:39;;;;;;;24.33;12.32;;;;;;;5.96;100.00;100629.84;10428486;28;20033;-84
2023/12/27 17:48:43;;;;;;;20.42;11.93;;;;;;;5.92;100.00;100636.81;10463361;28;20044;-82
2023/12/27 17:53:44;;;;;;;22.42;11.05;;;;;;;5.83;100.00;100638.19;10428034;28;20047;-84
2023/12/27 17:58:44;;;;;;;21.35;10.85;;;;;;;5.88;100.00;100608.28;10443773;28;20069;-83
2023/12/27 18:03:45;;;;;;;24.15;10.30;;;;;;;5.78;100.00;100570.56;10443762;28;20069;-83
2023/12/27 18:08:46;;;;;;;21.52;9.90;;;;;;;5.92;100.00;100608.66;10426785;28;20029;-83
2023/12/27 18:13:46;;;;;;;20.45;10.82;;;;;;;5.95;100.00;100594.56;10427958;28;20075;-83
2023/12/27 18:18:47;;;;;;;19.67;9.00;;;;;;;5.96;100.00;100574.38;10427215;28;20037;-84
2023/12/27 18:23:48;;;;;;;19.23;10.02;;;;;;;5.97;100.00;100565.09;10426725;28;20041;-83
2023/12/27 18:28:49;;;;;;;20.52;9.52;;;;;;;5.98;100.00;100561.31;10410840;28;20053;-77
2023/12/27 18:33:49;;;;;;;20.73;10.55;;;;;;;5.95;100.00;100564.50;10440918;28;20070;-84
2023/12/27 18:38:50;;;;;;;20.05;9.77;;;;;;;5.92;100.00;100567.69;10440762;28;20059;-83
2023/12/27 18:43:50;;;;;;;19.33;9.75;;;;;;;5.91;100.00;100541.41;10441279;28;20037;-82
2023/12/27 18:48:51;;;;;;;22.67;9.77;;;;;;;5.96;100.00;100517.00;10426947;28;20044;-84
2023/12/27 18:53:51;;;;;;;19.13;9.15;;;;;;;5.92;100.00;100496.63;10436012;28;20111;-83
2023/12/27 18:58:52;;;;;;;13.85;7.63;;;;;;;6.01;100.00;100489.78;10475627;28;20041;-83
2023/12/27 19:03:53;;;;;;;25.42;11.57;;;;;;;6.04;100.00;100459.28;10439634;28;20029;-82
2023/12/27 19:08:58;;;;;;;18.45;8.05;;;;;;;6.07;100.00;100456.06;10439687;28;20049;-80
2023/12/27 19:13:59;;;;;;;13.07;6.65;;;;;;;6.16;100.00;100454.66;10443105;28;20045;-82
2023/12/27 19:19:00;;;;;;;15.70;6.45;;;;;;;6.13;100.00;100427.78;10457072;28;20067;-81
2023/12/27 19:24:01;;;;;;;12.93;7.80;;;;;;;6.13;100.00;100433.25;10455712;28;20037;-82
2023/12/27 19:29:01;;;;;;;18.15;6.80;;;;;;;6.25;100.00;100436.84;10440853;28;20053;-82
2023/12/27 19:34:02;;;;;;;13.73;6.60;;;;;;;6.18;100.00;100413.41;10456295;28;20095;-81
2023/12/27 19:39:06;;;;;;;8.57;5.95;;;;;;;6.31;100.00;100401.44;10455616;28;20119;-82
2023/12/27 19:44:07;;;;;;;17.33;5.90;;;;;;;6.27;100.00;100390.13;10440493;28;20041;-81
2023/12/27 19:49:07;;;;;;;12.77;5.03;;;;;;;6.37;100.00;100405.97;10457304;28;20037;-80
2023/12/27 19:54:08;;;;;;;12.48;6.45;;;;;;;6.36;100.00;100404.28;10438340;28;20092;-80
2023/12/27 19:59:11;;;;;;;8.15;4.32;;;;;;;6.38;100.00;100397.50;10429334;28;20560;-79
2023/12/27 20:04:11;;;;;;;10.95;4.13;;;;;;;6.50;100.00;100405.69;10450616;28;20066;-78
2023/12/27 20:09:14;;;;;;;8.13;3.65;;;;;;;6.55;100.00;100402.25;10425250;28;20106;-80
2023/12/27 20:14:15;;;;;;;7.88;3.60;;;;;;;6.69;100.00;100416.50;10440015;28;20049;-79
2023/12/27 20:19:16;;;;;;;10.38;2.78;;;;;;;6.80;100.00;100440.28;10454853;28;20094;-79
2023/12/27 20:24:16;;;;;;;12.70;4.28;;;;;;;6.97;100.00;100416.56;10421133;28;20116;-79
2023/12/27 20:29:17;;;;;;;5.35;2.42;;;;;;;7.03;100.00;100414.78;10432860;28;20143;-79
2023/12/27 20:34:17;;;;;;;5.22;2.22;;;;;;;7.05;100.00;100407.16;10454409;28;20045;-78
2023/12/27 20:39:18;;;;;;;5.82;2.55;;;;;;;7.22;100.00;100401.75;10439237;28;20081;-78
2023/12/27 20:44:18;;;;;;;7.15;3.60;;;;;;;7.33;100.00;100409.06;10418869;28;20417;-78
2023/12/27 20:49:19;;;;;;;6.03;2.42;;;;;;;7.44;100.00;100429.25;10448007;28;20033;-78
2023/12/27 20:54:22;;;;;;;4.35;2.78;;;;;;;7.26;100.00;100402.94;10453958;28;20041;-77
2023/12/27 20:59:23;;;;;;;4.82;2.90;;;;;;;7.15;100.00;100396.41;10443462;28;20040;-79
2023/12/27 21:04:24;;;;;;;4.72;2.00;;;;;;;7.21;100.00;100400.06;10449807;28;20048;-79
2023/12/27 21:09:24;;;;;;;7.47;3.17;;;;;;;7.23;100.00;100406.13;10454487;28;20033;-80
2023/12/27 21:14:25;;;;;;;5.65;2.50;;;;;;;7.23;100.00;100419.81;10407169;28;20033;-79
2023/12/27 21:19:27;;;;;;;3.58;2.70;;;;;;;7.21;100.00;100424.72;10434672;28;20406;-80
2023/12/27 21:24:27;;;;;;;7.95;3.70;;;;;;;7.11;100.00;100416.28;10445480;28;20049;-79
2023/12/27 21:29:28;;;;;;;5.78;3.47;;;;;;;7.11;100.00;100424.50;10478880;28;20053;-82
2023/12/27 21:34:29;;;;;;;5.32;3.15;;;;;;;7.07;100.00;100429.66;10440893;28;20072;-76
2023/12/27 21:39:29;;;;;;;4.72;3.50;;;;;;;7.04;100.00;100430.13;10460174;28;20059;-81
2023/12/27 21:44:30;;;;;;;8.93;3.08;;;;;;;6.79;100.00;100392.94;10462899;28;20045;-79
2023/12/27 21:49:30;;;;;;;6.22;4.03;;;;;;;7.08;100.00;100423.91;10460540;28;20044;-83
2023/12/27 21:54:31;;;;;;;4.18;3.35;;;;;;;7.08;100.00;100414.88;10460393;28;20044;-82
2023/12/27 21:59:31;;;;;;;3.90;3.40;;;;;;;7.06;100.00;100417.84;10461457;28;20064;-81
2023/12/27 22:04:32;;;;;;;3.20;2.78;;;;;;;7.01;100.00;100401.34;10443680;28;20051;-81
2023/12/27 22:09:33;;;;;;;4.43;2.80;;;;;;;7.07;100.00;100411.31;10443823;28;20041;-82
2023/12/27 22:14:33;;;;;;;6.03;3.42;;;;;;;7.12;100.00;100402.38;10460705;28;20041;-76
2023/12/27 22:19:35;;;;;;;4.15;3.47;;;;;;;7.16;100.00;100425.44;10427327;28;20041;-81
2023/12/27 22:24:35;;;;;;;3.72;3.38;;;;;;;7.19;100.00;100422.25;10442932;28;20049;-81
2023/12/27 22:29:36;;;;;;;3.92;3.30;;;;;;;7.06;100.00;100412.38;10476971;28;20041;-80
2023/12/27 22:34:36;;;;;;;3.78;3.08;;;;;;;7.20;100.00;100447.69;10442919;28;20475;-80
2023/12/27 22:39:38;;;;;;;3.85;3.28;;;;;;;7.14;100.00;100434.97;10460287;28;20051;-79
2023/12/27 22:44:38;;;;;;;7.50;3.60;;;;;;;7.18;100.00;100438.91;10437570;28;20037;-80
2023/12/27 22:49:39;;;;;;;4.70;3.92;;;;;;;6.77;100.00;100366.91;10458895;28;20033;-79